Time,TemperatureF,DewpointF,PressureIn,WindDirection,WindDirectionDegrees,WindSpeedMPH,WindSpeedGustMPH,Humidity,HourlyPrecipIn,Conditions,Clouds,dailyrainin,SoftwareType,DateUTC
2013-08-25 00:04:00,64.0,58.0,30.25,SSE,150,0.0,-999.0,82,-99.99,,,0.00,weatherlink.com 1.10,2013-08-25 04:04:00,
2013-08-25 00:19:00,63.7,59.0,30.25,SSE,150,0.0,-999.0,83,-99.99,,,0.00,weatherlink.com 1.10,2013-08-25 04:19:00,
2013-08-25 00:34:00,63.4,59.0,30.25,SSE,150,0.0,-999.0,84,-99.99,,,0.00,weatherlink.com 1.10,2013-08-25 04:34:00,
2013-08-25 00:49:00,63.2,59.0,30.25,SSE,150,0.0,-999.0,85,-99.99,,,0.00,weatherlink.com 1.10,2013-08-25 04:49:00,
2013-08-25 01:04:00,62.9,59.0,30.24,SSE,150,0.0,-999.0,86,-99.99,,,0.00,weatherlink.com 1.10,2013-08-25 05:04:00,
2013-08-25 01:19:00,62.6,58.0,30.24,SSE,150,0.0,-999.0,86,-99.99,,,0.00,weatherlink.com 1.10,2013-08-25 05:19:00,
2013-08-25 01:34:00,62.4,59.0,30.24,SSE,150,0.0,-999.0,87,-99.99,,,0.00,weatherlink.com 1.10,2013-08-25 05:34:00,
2013-08-25 01:49:00,62.1,58.0,30.23,SSE,150,0.0,-999.0,87,-99.99,,,0.00,weatherlink.com 1.10,2013-08-25 05:49:00,
2013-08-25 02:04:00,61.8,58.0,30.23,SSE,150,0.0,-999.0,87,-99.99,,,0.00,weatherlink.com 1.10,2013-08-25 06:04:00,
2013-08-25 02:19:00,61.6,58.0,30.23,SSE,150,0.0,-999.0,88,-99.99,,,0.00,weatherlink.com 1.10,2013-08-25 06:19:00,
2013-08-25 02:34:00,61.3,58.0,30.23,SSE,150,0.0,-999.0,88,-99.99,,,0.00,weatherlink.com 1.10,2013-08-25 06:34:00,
2013-08-25 02:49:00,61.3,58.0,30.23,SSE,150,0.0,-999.0,88,-99.99,,,0.00,weatherlink.com 1.10,2013-08-25 06:49:00,
2013-08-25 03:04:00,61.0,58.0,30.23,SSE,150,0.0,-999.0,89,-99.99,,,0.00,weatherlink.com 1.10,2013-08-25 07:04:00,
2013-08-25 03:19:00,60.7,58.0,30.23,SSE,150,0.0,-999.0,89,-99.99,,,0.00,weatherlink.com 1.10,2013-08-25 07:19:00,
2013-08-25 03:34:00,60.5,57.0,30.23,SSE,150,0.0,-999.0,89,-99.99,,,0.00,weatherlink.com 1.10,2013-08-25 07:34:00,
2013-08-25 03:49:00,60.4,57.0,30.23,SSE,150,0.0,-999.0,89,-99.99,,,0.00,weatherlink.com 1.10,2013-08-25 07:49:00,
2013-08-25 04:04:00,60.2,57.0,30.23,SSE,150,0.0,-999.0,89,-99.99,,,0.00,weatherlink.com 1.10,2013-08-25 08:04:00,
2013-08-25 04:19:00,59.9,57.0,30.24,SSE,150,0.0,-999.0,90,-99.99,,,0.00,weatherlink.com 1.10,2013-08-25 08:19:00,
2013-08-25 04:34:00,59.8,57.0,30.24,SSE,150,0.0,-999.0,90,-99.99,,,0.00,weatherlink.com 1.10,2013-08-25 08:34:00,
2013-08-25 04:49:00,59.8,57.0,30.24,SSE,150,0.0,-999.0,90,-99.99,,,0.00,weatherlink.com 1.10,2013-08-25 08:49:00,
2013-08-25 05:04:00,59.6,57.0,30.25,SSE,150,0.0,-999.0,90,-99.99,,,0.00,weatherlink.com 1.10,2013-08-25 09:04:00,
2013-08-25 05:19:00,59.3,56.0,30.25,SSE,150,0.0,-999.0,90,-99.99,,,0.00,weatherlink.com 1.10,2013-08-25 09:19:00,
2013-08-25 05:34:00,59.3,57.0,30.25,SSE,150,0.0,-999.0,91,-99.99,,,0.00,weatherlink.com 1.10,2013-08-25 09:34:00,
2013-08-25 05:49:00,59.2,57.0,30.26,SSE,150,0.0,-999.0,91,-99.99,,,0.00,weatherlink.com 1.10,2013-08-25 09:49:00,
2013-08-25 06:04:00,59.0,56.0,30.26,SSE,150,0.0,-999.0,91,-99.99,,,0.00,weatherlink.com 1.10,2013-08-25 10:04:00,
2013-08-25 06:19:00,58.9,56.0,30.26,SSE,150,0.0,-999.0,91,-99.99,,,0.00,weatherlink.com 1.10,2013-08-25 10:19:00,
2013-08-25 06:34:00,58.9,56.0,30.27,SSE,150,0.0,-999.0,91,-99.99,,,0.00,weatherlink.com 1.10,2013-08-25 10:34:00,
2013-08-25 06:50:00,59.0,56.0,30.27,SSE,150,0.0,-999.0,91,-99.99,,,0.00,weatherlink.com 1.10,2013-08-25 10:50:00,
2013-08-25 07:05:00,59.5,57.0,30.27,SSE,150,0.0,-999.0,92,-99.99,,,0.00,weatherlink.com 1.10,2013-08-25 11:05:00,
2013-08-25 07:20:00,60.4,58.0,30.28,SSE,150,0.0,-999.0,92,-99.99,,,0.00,weatherlink.com 1.10,2013-08-25 11:20:00,
2013-08-25 07:35:00,61.3,59.0,30.29,SSE,150,0.0,-999.0,92,-99.99,,,0.00,weatherlink.com 1.10,2013-08-25 11:35:00,
2013-08-25 07:50:00,62.9,61.0,30.30,SSE,150,0.0,-999.0,92,-99.99,,,0.00,weatherlink.com 1.10,2013-08-25 11:50:00,
2013-08-25 08:05:00,65.0,61.0,30.29,South,191,0.0,-999.0,88,-99.99,,,0.00,weatherlink.com 1.10,2013-08-25 12:05:00,
2013-08-25 08:20:00,67.8,58.0,30.29,WSW,251,0.0,-999.0,72,-99.99,,,0.00,weatherlink.com 1.10,2013-08-25 12:20:00,
2013-08-25 08:35:00,70.6,57.0,30.29,WSW,247,0.0,-999.0,62,-99.99,,,0.00,weatherlink.com 1.10,2013-08-25 12:35:00,
2013-08-25 08:50:00,72.5,57.0,30.28,WSW,251,1.0,-999.0,58,-99.99,,,0.00,weatherlink.com 1.10,2013-08-25 12:50:00,
2013-08-25 09:05:00,74.0,55.0,30.28,West,270,1.0,-999.0,51,-99.99,,,0.00,weatherlink.com 1.10,2013-08-25 13:05:00,
2013-08-25 09:20:00,75.1,56.0,30.28,North,11,2.0,-999.0,51,-99.99,,,0.00,weatherlink.com 1.10,2013-08-25 13:20:00,
2013-08-25 09:35:00,76.3,55.0,30.29,North,359,0.0,-999.0,47,-99.99,,,0.00,weatherlink.com 1.10,2013-08-25 13:35:00,
2013-08-25 09:50:00,77.4,54.0,30.28,North,359,0.0,-999.0,45,-99.99,,,0.00,weatherlink.com 1.10,2013-08-25 13:50:00,
2013-08-25 10:05:00,77.9,54.0,30.28,North,354,1.0,-999.0,43,-99.99,,,0.00,weatherlink.com 1.10,2013-08-25 14:05:00,
2013-08-25 10:20:00,79.0,55.0,30.28,North,4,0.0,-999.0,43,-99.99,,,0.00,weatherlink.com 1.10,2013-08-25 14:20:00,
2013-08-25 10:35:00,79.2,53.0,30.27,WNW,291,1.0,-999.0,41,-99.99,,,0.00,weatherlink.com 1.10,2013-08-25 14:35:00,
2013-08-25 10:50:00,80.5,52.0,30.27,North,1,0.0,-999.0,37,-99.99,,,0.00,weatherlink.com 1.10,2013-08-25 14:50:00,
2013-08-25 11:05:00,82.0,51.0,30.27,NNE,18,2.0,-999.0,34,-99.99,,,0.00,weatherlink.com 1.10,2013-08-25 15:05:00,
2013-08-25 11:20:00,82.8,50.0,30.26,North,4,0.0,-999.0,32,-99.99,,,0.00,weatherlink.com 1.10,2013-08-25 15:20:00,
2013-08-25 11:35:00,82.8,50.0,30.26,South,172,1.0,-999.0,32,-99.99,,,0.00,weatherlink.com 1.10,2013-08-25 15:35:00,
2013-08-25 11:50:00,81.8,51.0,30.25,WSW,240,1.0,-999.0,34,-99.99,,,0.00,weatherlink.com 1.10,2013-08-25 15:50:00,
2013-08-25 12:05:00,81.4,52.0,30.25,NW,312,1.0,-999.0,36,-99.99,,,0.00,weatherlink.com 1.10,2013-08-25 16:05:00,
2013-08-25 12:20:00,80.7,53.0,30.25,West,281,6.0,-999.0,39,-99.99,,,0.00,weatherlink.com 1.10,2013-08-25 16:20:00,
2013-08-25 12:35:00,80.1,53.0,30.24,WSW,251,6.0,-999.0,39,-99.99,,,0.00,weatherlink.com 1.10,2013-08-25 16:35:00,
2013-08-25 12:50:00,81.1,52.0,30.23,West,260,5.0,-999.0,37,-99.99,,,0.00,weatherlink.com 1.10,2013-08-25 16:50:00,
2013-08-25 13:05:00,81.6,53.0,30.23,West,268,0.0,-999.0,37,-99.99,,,0.00,weatherlink.com 1.10,2013-08-25 17:05:00,
2013-08-25 13:20:00,81.8,52.0,30.23,WSW,243,7.0,-999.0,35,-99.99,,,0.00,weatherlink.com 1.10,2013-08-25 17:20:00,
2013-08-25 13:35:00,81.6,51.0,30.22,WSW,237,6.0,-999.0,34,-99.99,,,0.00,weatherlink.com 1.10,2013-08-25 17:35:00,
2013-08-25 13:50:00,82.2,48.0,30.22,WSW,247,8.0,-999.0,30,-99.99,,,0.00,weatherlink.com 1.10,2013-08-25 17:50:00,
2013-08-25 14:05:00,81.8,47.0,30.22,SSW,200,8.0,-999.0,29,-99.99,,,0.00,weatherlink.com 1.10,2013-08-25 18:05:00,
2013-08-25 14:20:00,82.0,46.0,30.21,SW,222,5.0,-999.0,28,-99.99,,,0.00,weatherlink.com 1.10,2013-08-25 18:20:00,
2013-08-25 14:35:00,82.2,46.0,30.21,South,189,10.0,-999.0,28,-99.99,,,0.00,weatherlink.com 1.10,2013-08-25 18:35:00,
2013-08-25 14:50:00,83.0,46.0,30.21,SW,219,5.0,-999.0,27,-99.99,,,0.00,weatherlink.com 1.10,2013-08-25 18:50:00,
2013-08-25 15:06:00,82.6,49.0,30.20,West,280,7.0,-999.0,31,-99.99,,,0.00,weatherlink.com 1.10,2013-08-25 19:06:00,
2013-08-25 15:21:00,82.8,46.0,30.21,SSW,212,7.0,-999.0,28,-99.99,,,0.00,weatherlink.com 1.10,2013-08-25 19:21:00,
2013-08-25 15:36:00,82.4,50.0,30.20,West,265,7.0,-999.0,32,-99.99,,,0.00,weatherlink.com 1.10,2013-08-25 19:36:00,
2013-08-25 15:51:00,83.0,49.0,30.20,SW,222,7.0,-999.0,30,-99.99,,,0.00,weatherlink.com 1.10,2013-08-25 19:51:00,
2013-08-25 16:06:00,82.0,50.0,30.19,SW,230,3.0,-999.0,33,-99.99,,,0.00,weatherlink.com 1.10,2013-08-25 20:06:00,
2013-08-25 16:21:00,82.4,50.0,30.19,SW,229,5.0,-999.0,32,-99.99,,,0.00,weatherlink.com 1.10,2013-08-25 20:21:00,
2013-08-25 16:36:00,81.6,51.0,30.19,SW,215,6.0,-999.0,34,-99.99,,,0.00,weatherlink.com 1.10,2013-08-25 20:36:00,
2013-08-25 16:51:00,82.4,51.0,30.18,WSW,241,2.0,-999.0,33,-99.99,,,0.00,weatherlink.com 1.10,2013-08-25 20:51:00,
2013-08-25 17:06:00,82.0,52.0,30.17,SSE,165,6.0,-999.0,35,-99.99,,,0.00,weatherlink.com 1.10,2013-08-25 21:06:00,
2013-08-25 17:21:00,81.8,52.0,30.17,South,189,3.0,-999.0,35,-99.99,,,0.00,weatherlink.com 1.10,2013-08-25 21:21:00,
2013-08-25 17:36:00,80.1,52.0,30.17,South,185,7.0,-999.0,38,-99.99,,,0.00,weatherlink.com 1.10,2013-08-25 21:36:00,
2013-08-25 17:51:00,78.6,52.0,30.17,SW,220,5.0,-999.0,40,-99.99,,,0.00,weatherlink.com 1.10,2013-08-25 21:51:00,
2013-08-25 18:06:00,77.9,53.0,30.16,SW,227,4.0,-999.0,42,-99.99,,,0.00,weatherlink.com 1.10,2013-08-25 22:06:00,
2013-08-25 18:21:00,77.2,52.0,30.16,SW,219,2.0,-999.0,42,-99.99,,,0.00,weatherlink.com 1.10,2013-08-25 22:21:00,
2013-08-25 18:36:00,76.5,54.0,30.15,WSW,240,7.0,-999.0,45,-99.99,,,0.00,weatherlink.com 1.10,2013-08-25 22:36:00,
2013-08-25 18:51:00,75.8,52.0,30.14,WSW,250,4.0,-999.0,44,-99.99,,,0.00,weatherlink.com 1.10,2013-08-25 22:51:00,
2013-08-25 19:06:00,74.9,53.0,30.14,WSW,254,6.0,-999.0,47,-99.99,,,0.00,weatherlink.com 1.10,2013-08-25 23:06:00,
2013-08-25 19:21:00,74.4,52.0,30.14,SSW,209,7.0,-999.0,45,-99.99,,,0.00,weatherlink.com 1.10,2013-08-25 23:21:00,
2013-08-25 19:36:00,73.9,52.0,30.14,West,275,6.0,-999.0,46,-99.99,,,0.00,weatherlink.com 1.10,2013-08-25 23:36:00,
2013-08-25 19:51:00,73.5,54.0,30.14,South,184,7.0,-999.0,50,-99.99,,,0.00,weatherlink.com 1.10,2013-08-25 23:51:00,
2013-08-25 20:06:00,73.2,54.0,30.14,SW,224,7.0,-999.0,51,-99.99,,,0.00,weatherlink.com 1.10,2013-08-26 00:06:00,
2013-08-25 20:21:00,73.0,53.0,30.14,South,191,6.0,-999.0,50,-99.99,,,0.00,weatherlink.com 1.10,2013-08-26 00:21:00,
2013-08-25 20:36:00,72.8,53.0,30.14,WSW,240,7.0,-999.0,50,-99.99,,,0.00,weatherlink.com 1.10,2013-08-26 00:36:00,
2013-08-25 20:51:00,72.8,54.0,30.14,WSW,251,6.0,-999.0,51,-99.99,,,0.00,weatherlink.com 1.10,2013-08-26 00:51:00,
2013-08-25 21:06:00,72.7,55.0,30.14,SW,234,5.0,-999.0,54,-99.99,,,0.00,weatherlink.com 1.10,2013-08-26 01:06:00,
2013-08-25 21:21:00,72.7,55.0,30.14,SW,234,4.0,-999.0,55,-99.99,,,0.00,weatherlink.com 1.10,2013-08-26 01:21:00,
2013-08-25 21:36:00,72.7,54.0,30.15,WSW,244,5.0,-999.0,52,-99.99,,,0.00,weatherlink.com 1.10,2013-08-26 01:36:00,
2013-08-25 21:51:00,72.5,52.0,30.14,West,264,3.0,-999.0,49,-99.99,,,0.00,weatherlink.com 1.10,2013-08-26 01:51:00,
2013-08-25 22:06:00,72.1,52.0,30.15,WSW,250,7.0,-999.0,49,-99.99,,,0.00,weatherlink.com 1.10,2013-08-26 02:06:00,
2013-08-25 22:21:00,71.8,52.0,30.15,SSW,213,1.0,-999.0,50,-99.99,,,0.00,weatherlink.com 1.10,2013-08-26 02:21:00,
2013-08-25 22:36:00,71.3,52.0,30.15,West,272,4.0,-999.0,51,-99.99,,,0.00,weatherlink.com 1.10,2013-08-26 02:36:00,
2013-08-25 22:51:00,71.1,53.0,30.14,SW,220,5.0,-999.0,53,-99.99,,,0.00,weatherlink.com 1.10,2013-08-26 02:51:00,
2013-08-25 23:06:00,70.8,54.0,30.14,SW,226,3.0,-999.0,55,-99.99,,,0.00,weatherlink.com 1.10,2013-08-26 03:06:00,
2013-08-25 23:21:00,70.4,55.0,30.14,WSW,251,4.0,-999.0,58,-99.99,,,0.00,weatherlink.com 1.10,2013-08-26 03:21:00,
2013-08-25 23:36:00,70.3,55.0,30.14,WSW,251,4.0,-999.0,58,-99.99,,,0.00,weatherlink.com 1.10,2013-08-26 03:36:00,
2013-08-25 23:51:00,70.3,55.0,30.13,West,260,6.0,-999.0,59,-99.99,,,0.00,weatherlink.com 1.10,2013-08-26 03:51:00,